Time;durP1;ratioP1;P1;durP2;ratioP2;P2;SDS_P1;SDS_P2;PMS_P1;PMS_P2;Temp;Humidity;BMP_temperature;BMP_pressure;BME280_temperature;BME280_humidity;BME280_pressure;Samples;Min_cycle;Max_cycle;Signal;HPM_P1;HPM_P2
2023/04/05 00:02:20;;;;;;;22.13;10.43;;;;;;;2.03;100.00;102287.78;5075209;28;20376;-71
2023/04/05 00:04:56;;;;;;;22.02;10.13;;;;;;;2.01;100.00;102298.91;5074996;28;20078;-69
2023/04/05 00:07:21;;;;;;;22.30;10.05;;;;;;;1.95;100.00;102301.16;5071125;28;20024;-72
2023/04/05 00:09:47;;;;;;;22.02;10.10;;;;;;;1.95;100.00;102301.16;5075413;28;20494;-72
2023/04/05 00:12:13;;;;;;;21.52;9.88;;;;;;;1.87;100.00;102298.06;5074867;28;20025;-70
2023/04/05 00:14:38;;;;;;;21.33;9.90;;;;;;;1.84;100.00;102297.88;5074873;28;20034;-71
2023/04/05 00:17:04;;;;;;;22.08;10.48;;;;;;;1.80;100.00;102301.97;5074988;28;20032;-70
2023/04/05 00:19:32;;;;;;;22.77;10.60;;;;;;;1.75;100.00;102300.81;5074766;28;20056;-69
2023/04/05 00:21:58;;;;;;;23.88;11.05;;;;;;;1.66;100.00;102297.59;5074687;28;20491;-71
2023/04/05 00:24:24;;;;;;;22.45;10.68;;;;;;;1.55;100.00;102295.19;5073436;28;20021;-71
2023/04/05 00:26:49;;;;;;;22.77;11.18;;;;;;;1.54;100.00;102295.09;5070637;28;20121;-71
2023/04/05 00:29:14;;;;;;;23.95;11.52;;;;;;;1.46;100.00;102294.63;5073226;28;20029;-70
2023/04/05 00:31:40;;;;;;;25.17;11.50;;;;;;;1.50;100.00;102290.50;5074677;28;20033;-70
2023/04/05 00:34:07;;;;;;;22.75;11.07;;;;;;;1.40;100.00;102286.41;5074068;28;20049;-70
2023/04/05 00:36:33;;;;;;;23.25;10.82;;;;;;;1.40;100.00;102286.41;5074878;28;20029;-72
2023/04/05 00:38:59;;;;;;;23.13;10.77;;;;;;;1.39;100.00;102282.00;5074627;28;20036;-70
2023/04/05 00:41:24;;;;;;;22.75;10.90;;;;;;;1.32;100.00;102275.47;5074322;28;20044;-70
2023/04/05 00:43:49;;;;;;;23.98;10.63;;;;;;;1.33;100.00;102281.59;5070401;28;20063;-70
2023/04/05 00:46:15;;;;;;;23.63;11.13;;;;;;;1.35;100.00;102273.06;5074209;28;20070;-71
2023/04/05 00:48:41;;;;;;;22.90;10.63;;;;;;;1.36;100.00;102272.25;5074149;28;20043;-73
2023/04/05 00:51:10;;;;;;;22.50;10.52;;;;;;;1.42;100.00;102273.47;5074322;28;20029;-71
2023/04/05 00:53:36;;;;;;;22.63;10.48;;;;;;;1.32;100.00;102267.66;5074128;28;20024;-70
2023/04/05 00:56:02;;;;;;;21.60;9.48;;;;;;;1.29;100.00;102272.66;5074017;28;20032;-70
2023/04/05 00:58:28;;;;;;;21.58;9.90;;;;;;;1.32;100.00;102278.06;5074187;28;20387;-71
2023/04/05 01:01:00;;;;;;;22.88;10.35;;;;;;;1.32;100.00;102278.06;5074103;28;20028;-70
2023/04/05 01:03:28;;;;;;;22.80;9.87;;;;;;;1.08;100.00;102279.09;5070584;28;20047;-73
2023/04/05 01:06:11;;;;;;;22.92;10.60;;;;;;;0.92;100.00;102287.56;5073937;28;20025;-71
2023/04/05 01:08:44;;;;;;;22.25;10.50;;;;;;;0.86;100.00;102278.56;5072157;28;20104;-70
2023/04/05 01:11:11;;;;;;;22.23;10.45;;;;;;;0.80;100.00;102278.19;5073883;28;20060;-72
2023/04/05 01:13:36;;;;;;;22.73;10.65;;;;;;;0.78;100.00;102273.66;5073612;28;20032;-71
2023/04/05 01:16:02;;;;;;;22.55;10.40;;;;;;;0.69;100.00;102273.94;5073677;28;20082;-71
2023/04/05 01:18:29;;;;;;;23.13;10.15;;;;;;;0.79;100.00;102275.47;5073766;28;20027;-74
2023/04/05 01:21:22;;;;;;;22.33;10.85;;;;;;;0.76;100.00;102277.84;5073511;28;20474;-72
2023/04/05 01:24:24;;;;;;;23.17;11.30;;;;;;;0.73;100.00;102270.75;5073540;28;20020;-71
2023/04/05 01:27:12;;;;;;;23.42;11.10;;;;;;;0.66;100.00;102268.53;5069875;28;20063;-74
2023/04/05 01:29:46;;;;;;;23.15;10.95;;;;;;;0.65;100.00;102265.00;5071921;28;20446;-72
2023/04/05 01:32:30;;;;;;;22.05;10.20;;;;;;;0.83;100.00;102256.63;5073534;28;20410;-73
2023/04/05 01:35:40;;;;;;;23.48;10.35;;;;;;;0.80;100.00;102264.22;5069885;28;20044;-72
2023/04/05 01:38:09;;;;;;;23.42;10.30;;;;;;;0.74;100.00;102263.84;5030347;28;20646;-71
2023/04/05 01:40:36;;;;;;;22.55;10.60;;;;;;;0.68;100.00;102248.69;5031383;28;20434;-71
2023/04/05 01:43:02;;;;;;;23.00;11.57;;;;;;;0.62;100.00;102253.50;5051664;28;20487;-72
2023/04/05 01:45:27;;;;;;;22.40;10.95;;;;;;;0.55;100.00;102256.50;5073023;28;20383;-71
2023/04/05 01:47:53;;;;;;;22.10;10.57;;;;;;;0.52;100.00;102252.91;5073160;28;20043;-74
2023/04/05 01:50:19;;;;;;;22.65;10.82;;;;;;;0.50;100.00;102250.97;5073017;28;20104;-72
2023/04/05 01:52:44;;;;;;;22.05;10.48;;;;;;;0.42;100.00;102254.75;5072932;28;20026;-70
2023/04/05 01:55:10;;;;;;;22.73;10.50;;;;;;;0.34;100.00;102249.94;5073109;28;20039;-73
2023/04/05 01:57:35;;;;;;;21.63;10.43;;;;;;;0.32;100.00;102246.31;5071927;28;20044;-73
2023/04/05 02:00:00;;;;;;;22.60;10.73;;;;;;;0.23;100.00;102247.38;5073053;28;20474;-73
2023/04/05 02:02:26;;;;;;;22.27;11.00;;;;;;;0.11;100.00;102247.44;5073062;28;20185;-73
2023/04/05 02:04:51;;;;;;;22.92;11.52;;;;;;;0.11;100.00;102242.25;5073105;28;20033;-71
2023/04/05 02:07:16;;;;;;;23.33;11.32;;;;;;;0.12;100.00;102239.75;5072887;28;20035;-74
2023/04/05 02:09:42;;;;;;;23.15;11.27;;;;;;;0.18;100.00;102239.28;5072683;28;20032;-71
2023/04/05 02:12:07;;;;;;;23.95;11.27;;;;;;;0.12;100.00;102237.16;5072963;28;20051;-73
2023/04/05 02:14:34;;;;;;;23.83;11.18;;;;;;;0.01;100.00;102242.41;5072776;28;20032;-70
2023/04/05 02:17:01;;;;;;;22.85;11.43;;;;;;;0.01;100.00;102242.41;5072693;28;20070;-73
2023/04/05 02:19:28;;;;;;;23.58;10.88;;;;;;;-0.06;100.00;102242.00;5072607;28;20032;-73
2023/04/05 02:21:54;;;;;;;23.08;11.50;;;;;;;-0.15;100.00;102236.13;5072850;28;20150;-73
2023/04/05 02:24:20;;;;;;;22.58;11.02;;;;;;;-0.27;100.00;102245.69;5072589;28;20028;-70
2023/04/05 02:26:46;;;;;;;21.73;10.85;;;;;;;-0.22;100.00;102233.88;5072439;28;20426;-72
2023/04/05 02:29:11;;;;;;;22.95;10.90;;;;;;;-0.20;100.00;102235.81;5072684;28;20032;-72
2023/04/05 02:31:36;;;;;;;22.73;11.07;;;;;;;-0.27;100.00;102230.97;5072486;28;20032;-71
2023/04/05 02:34:02;;;;;;;23.30;11.25;;;;;;;-0.19;100.00;102235.03;5072174;28;20056;-70
2023/04/05 02:36:27;;;;;;;22.02;11.02;;;;;;;-0.25;100.00;102233.69;5072667;28;20041;-71
2023/04/05 02:38:53;;;;;;;22.45;10.52;;;;;;;-0.21;100.00;102235.72;5072493;28;20037;-70
2023/04/05 02:41:20;;;;;;;22.23;11.05;;;;;;;-0.21;100.00;102225.31;5072436;28;20040;-70
2023/04/05 02:43:46;;;;;;;24.70;11.48;;;;;;;-0.20;100.00;102227.13;5072759;28;20040;-70
2023/04/05 02:46:11;;;;;;;24.35;12.65;;;;;;;-0.39;100.00;102220.63;5072352;28;20368;-72
2023/04/05 02:48:37;;;;;;;26.23;13.88;;;;;;;-0.38;100.00;102222.44;5074083;28;20036;-70
2023/04/05 02:51:02;;;;;;;24.92;13.93;;;;;;;-0.47;100.00;102224.34;5076681;28;20050;-73
2023/04/05 02:53:28;;;;;;;26.23;14.45;;;;;;;-0.39;100.00;102225.81;5076455;28;20669;-70
2023/04/05 02:55:55;;;;;;;24.95;13.27;;;;;;;-0.47;100.00;102231.25;5076539;28;20025;-71
2023/04/05 02:58:22;;;;;;;25.02;13.55;;;;;;;-0.46;100.00;102226.16;5076427;28;20035;-72
2023/04/05 03:00:49;;;;;;;26.17;14.10;;;;;;;-0.56;100.00;102226.31;5075065;28;20507;-70
2023/04/05 03:03:19;;;;;;;26.10;14.80;;;;;;;-0.63;100.00;102224.97;5076228;28;20078;-71
2023/04/05 03:05:46;;;;;;;25.42;14.32;;;;;;;-0.66;100.00;102222.16;5076385;28;20107;-70
2023/04/05 03:08:17;;;;;;;25.83;13.73;;;;;;;-0.74;100.00;102218.13;5076016;28;20025;-71
2023/04/05 03:10:46;;;;;;;25.33;13.68;;;;;;;-0.69;100.00;102218.44;5074815;28;20058;-71
2023/04/05 03:13:13;;;;;;;26.42;14.57;;;;;;;-0.69;100.00;102214.13;5076182;28;20029;-69
2023/04/05 03:15:38;;;;;;;26.02;14.60;;;;;;;-0.63;100.00;102213.69;5075967;28;20025;-71
2023/04/05 03:18:04;;;;;;;25.90;14.23;;;;;;;-0.59;100.00;102207.91;5075911;28;20027;-70
2023/04/05 03:20:29;;;;;;;26.45;14.63;;;;;;;-0.59;100.00;102207.91;5076111;28;20039;-72
2023/04/05 03:22:55;;;;;;;25.90;13.88;;;;;;;-0.61;100.00;102205.22;5075821;28;20039;-70
2023/04/05 03:25:20;;;;;;;26.77;14.93;;;;;;;-0.57;100.00;102199.44;5075817;28;20029;-71
2023/04/05 03:27:45;;;;;;;25.42;14.43;;;;;;;-0.71;100.00;102206.22;5075812;28;20032;-71
2023/04/05 03:30:11;;;;;;;25.75;14.63;;;;;;;-0.73;100.00;102196.53;5075646;28;20029;-70
2023/04/05 03:32:37;;;;;;;26.63;14.68;;;;;;;-0.74;100.00;102197.34;5075611;28;20035;-70
2023/04/05 03:35:02;;;;;;;26.15;15.07;;;;;;;-0.83;100.00;102183.66;5075379;28;20048;-71
2023/04/05 03:37:27;;;;;;;26.35;14.95;;;;;;;-0.88;100.00;102189.44;5075566;28;20078;-72
2023/04/05 03:39:53;;;;;;;26.15;14.57;;;;;;;-0.81;100.00;102190.78;5075737;28;20052;-70
2023/04/05 03:42:18;;;;;;;26.90;14.50;;;;;;;-0.84;100.00;102195.75;5075407;28;20025;-74
2023/04/05 03:44:43;;;;;;;26.38;15.00;;;;;;;-0.82;100.00;102195.88;5075358;28;20021;-70
2023/04/05 03:47:09;;;;;;;26.88;14.35;;;;;;;-0.91;100.00;102201.31;5074313;28;20059;-71
2023/04/05 03:49:35;;;;;;;27.15;15.18;;;;;;;-1.02;100.00;102197.00;5075278;28;20399;-70
2023/04/05 03:52:00;;;;;;;27.17;14.88;;;;;;;-1.06;100.00;102194.19;5075522;28;20178;-71
2023/04/05 03:54:25;;;;;;;26.98;15.05;;;;;;;-1.13;100.00;102193.66;5075829;28;20035;-70
2023/04/05 03:56:51;;;;;;;25.67;14.73;;;;;;;-1.19;100.00;102191.50;5075371;28;20490;-71
2023/04/05 03:59:16;;;;;;;27.55;15.02;;;;;;;-1.20;100.00;102196.59;5074393;28;20143;-72
2023/04/05 04:01:41;;;;;;;26.55;15.02;;;;;;;-1.24;100.00;102185.06;5074988;28;20082;-70
2023/04/05 04:04:07;;;;;;;25.55;14.35;;;;;;;-1.29;100.00;102178.66;5075075;28;20395;-71
2023/04/05 04:06:32;;;;;;;26.42;14.73;;;;;;;-1.25;100.00;102178.09;5074964;28;20028;-71
2023/04/05 04:08:58;;;;;;;27.77;15.10;;;;;;;-1.28;100.00;102180.41;5075140;28;20028;-71
2023/04/05 04:11:23;;;;;;;26.98;15.00;;;;;;;-1.33;100.00;102176.59;5075035;28;20115;-71
2023/04/05 04:13:48;;;;;;;26.75;15.23;;;;;;;-1.41;100.00;102176.94;5074890;28;20062;-70
2023/04/05 04:16:14;;;;;;;27.85;15.80;;;;;;;-1.37;100.00;102172.88;5075090;28;20086;-72
2023/04/05 04:18:40;;;;;;;25.67;14.57;;;;;;;-1.36;100.00;102173.78;5073642;28;20112;-71
2023/04/05 04:21:05;;;;;;;26.25;15.60;;;;;;;-1.34;100.00;102175.72;5073580;28;20039;-71
2023/04/05 04:23:33;;;;;;;27.38;15.98;;;;;;;-1.43;100.00;102173.34;5074650;28;20032;-71
2023/04/05 04:26:00;;;;;;;28.77;16.50;;;;;;;-1.48;100.00;102177.28;5074692;28;20032;-71
2023/04/05 04:28:26;;;;;;;27.30;15.82;;;;;;;-1.53;100.00;102180.31;5074750;28;20107;-70
2023/04/05 04:30:52;;;;;;;27.60;15.90;;;;;;;-1.55;100.00;102175.00;5074929;28;20455;-71
2023/04/05 04:33:18;;;;;;;27.10;15.85;;;;;;;-1.62;100.00;102173.63;5074589;28;20115;-71
2023/04/05 04:35:45;;;;;;;28.95;16.75;;;;;;;-1.58;100.00;102177.38;5074500;28;20086;-71
2023/04/05 04:38:17;;;;;;;28.27;16.67;;;;;;;-1.60;100.00;102171.19;5074434;28;20078;-70
2023/04/05 04:40:46;;;;;;;28.53;16.77;;;;;;;-1.67;100.00;102176.69;5074391;28;20020;-71
2023/04/05 04:43:16;;;;;;;28.30;16.85;;;;;;;-1.67;100.00;102177.59;5074314;28;20032;-70
2023/04/05 04:45:53;;;;;;;31.40;17.38;;;;;;;-1.74;100.00;102177.03;5074497;28;20031;-70
2023/04/05 04:48:19;;;;;;;28.63;17.08;;;;;;;-1.76;100.00;102174.31;5074365;28;20033;-70
2023/04/05 04:50:46;;;;;;;27.40;16.35;;;;;;;-1.85;100.00;102179.72;5074160;28;20032;-70
2023/04/05 04:53:12;;;;;;;28.33;16.50;;;;;;;-1.80;100.00;102177.47;5074307;28;20051;-70
2023/04/05 04:55:43;;;;;;;28.17;16.35;;;;;;;-1.82;100.00;102182.53;5074120;28;20589;-69
2023/04/05 04:58:10;;;;;;;28.95;16.77;;;;;;;-1.78;100.00;102173.28;5073970;28;20035;-69
2023/04/05 05:00:43;;;;;;;29.50;16.35;;;;;;;-1.83;100.00;102175.53;5074057;28;20035;-69
2023/04/05 05:03:12;;;;;;;29.33;16.13;;;;;;;-1.83;100.00;102170.34;5072833;28;20024;-70
2023/04/05 05:05:49;;;;;;;29.65;16.48;;;;;;;-1.83;100.00;102175.53;5073904;28;20383;-70
2023/04/05 05:08:15;;;;;;;27.13;15.95;;;;;;;-1.86;100.00;102174.41;5073712;28;20048;-70
2023/04/05 05:10:41;;;;;;;29.65;16.85;;;;;;;-1.91;100.00;102175.72;5073448;28;20029;-69
2023/04/05 05:13:06;;;;;;;28.10;16.30;;;;;;;-1.90;100.00;102174.97;5073916;28;20043;-69
2023/04/05 05:15:31;;;;;;;27.85;16.95;;;;;;;-1.95;100.00;102188.47;5073934;28;20056;-70
2023/04/05 05:17:57;;;;;;;27.58;16.42;;;;;;;-1.96;100.00;102178.88;5072644;28;20051;-70
2023/04/05 05:20:26;;;;;;;27.77;15.93;;;;;;;-1.93;100.00;102179.09;5073562;28;20060;-70
2023/04/05 05:22:51;;;;;;;29.40;16.75;;;;;;;-1.86;100.00;102179.59;5073472;28;20020;-69
2023/04/05 05:25:17;;;;;;;29.77;17.52;;;;;;;-1.83;100.00;102175.53;5073707;28;20078;-69
2023/04/05 05:27:42;;;;;;;34.35;18.20;;;;;;;-1.79;100.00;102172.38;5073350;28;20032;-70
2023/04/05 05:30:08;;;;;;;32.05;17.98;;;;;;;-1.79;100.00;102169.78;5073360;28;20032;-71
2023/04/05 05:32:33;;;;;;;34.17;18.60;;;;;;;-1.80;100.00;102170.56;5070834;28;20070;-69
2023/04/05 05:34:59;;;;;;;31.45;18.38;;;;;;;-1.67;100.00;102166.31;5067806;28;20048;-70
2023/04/05 05:37:31;;;;;;;31.17;17.95;;;;;;;-1.64;100.00;102162.25;5068892;28;20039;-71
2023/04/05 05:39:57;;;;;;;29.98;17.80;;;;;;;-1.62;100.00;102160.66;5065140;28;20086;-67
2023/04/05 05:42:23;;;;;;;28.65;17.20;;;;;;;-1.56;100.00;102165.41;5070512;28;20029;-67
2023/04/05 05:44:48;;;;;;;28.60;17.55;;;;;;;-1.48;100.00;102163.41;5067143;28;20029;-66
2023/04/05 05:47:14;;;;;;;28.67;17.27;;;;;;;-1.50;100.00;102168.50;5072669;28;20546;-68
2023/04/05 05:49:39;;;;;;;29.25;17.23;;;;;;;-1.48;100.00;102164.31;5074582;28;20032;-68
2023/04/05 05:52:05;;;;;;;27.90;16.27;;;;;;;-1.39;100.00;102173.56;5068866;28;20021;-67
2023/04/05 05:54:30;;;;;;;29.52;17.60;;;;;;;-1.34;100.00;102172.19;5069301;28;20036;-67
2023/04/05 05:56:55;;;;;;;28.38;17.48;;;;;;;-1.32;100.00;102163.75;5063468;28;20182;-67
2023/04/05 05:59:21;;;;;;;29.02;17.70;;;;;;;-1.23;100.00;102181.69;5070366;28;20024;-67
2023/04/05 06:01:47;;;;;;;28.95;17.35;;;;;;;-1.22;100.00;102183.50;5072430;28;20024;-67
2023/04/05 06:04:12;;;;;;;30.00;18.58;;;;;;;-1.17;100.00;102176.94;5065995;28;20082;-68
2023/04/05 06:06:39;;;;;;;29.30;19.23;;;;;;;-1.10;100.00;102181.78;5070258;28;20032;-67
2023/04/05 06:09:05;;;;;;;30.83;19.00;;;;;;;-1.02;100.00;102176.25;5073551;28;20150;-69
2023/04/05 06:11:30;;;;;;;30.23;18.38;;;;;;;-0.96;100.00;102180.19;5067287;28;20082;-68
2023/04/05 06:13:55;;;;;;;29.15;18.50;;;;;;;-0.98;100.00;102178.28;5073366;28;20146;-69
2023/04/05 06:16:21;;;;;;;30.30;18.35;;;;;;;-0.92;100.00;102183.91;5068004;28;20032;-67
2023/04/05 06:18:47;;;;;;;29.23;18.48;;;;;;;-0.82;100.00;102186.38;5063246;28;20399;-68
2023/04/05 06:21:13;;;;;;;29.48;18.45;;;;;;;-0.73;100.00;102194.84;5066713;28;20051;-68
2023/04/05 06:23:40;;;;;;;30.98;18.63;;;;;;;-0.65;100.00;102195.38;5074243;28;20423;-68
2023/04/05 06:26:06;;;;;;;30.90;19.42;;;;;;;-0.56;100.00;102192.53;5064428;28;20317;-68
2023/04/05 06:28:31;;;;;;;30.80;20.13;;;;;;;-0.51;100.00;102190.25;5071290;28;20039;-71
2023/04/05 06:30:58;;;;;;;30.45;18.92;;;;;;;-0.42;100.00;102189.22;5070165;28;20482;-67
2023/04/05 06:33:23;;;;;;;29.88;20.00;;;;;;;-0.33;100.00;102188.06;5073062;28;20032;-67
2023/04/05 06:35:48;;;;;;;31.33;20.88;;;;;;;-0.20;100.00;102185.53;5063174;28;20546;-67
2023/04/05 06:38:14;;;;;;;31.95;21.08;;;;;;;-0.09;100.00;102178.47;5064970;28;20128;-67
2023/04/05 06:40:39;;;;;;;30.75;20.60;;;;;;;0.00;100.00;102184.31;5069279;28;20036;-70
2023/04/05 06:43:05;;;;;;;30.98;21.13;;;;;;;0.15;100.00;102189.66;5069821;28;20075;-68
2023/04/05 06:45:30;;;;;;;31.23;21.23;;;;;;;0.24;100.00;102185.06;5065117;28;20043;-70
2023/04/05 06:47:56;;;;;;;31.75;21.58;;;;;;;0.32;100.00;102186.50;5066325;28;20044;-68
2023/04/05 06:50:21;;;;;;;31.05;21.65;;;;;;;0.46;100.00;102189.13;5066469;28;20112;-68
2023/04/05 06:52:46;;;;;;;32.63;22.52;;;;;;;0.56;100.00;102188.03;5071605;28;20025;-67
2023/04/05 06:55:12;;;;;;;32.80;21.80;;;;;;;0.67;100.00;102187.94;5072703;28;20028;-69
2023/04/05 06:57:37;;;;;;;29.60;21.23;;;;;;;0.86;100.00;102191.75;5072143;28;20087;-72
2023/04/05 07:00:09;;;;;;;30.05;21.23;;;;;;;0.98;100.00;102200.34;5074473;28;20048;-70
2023/04/05 07:02:34;;;;;;;31.00;21.23;;;;;;;1.12;100.00;102188.25;5075708;28;20064;-68
2023/04/05 07:05:04;;;;;;;30.75;20.63;;;;;;;1.25;100.00;102189.91;5072122;28;20060;-67
2023/04/05 07:07:30;;;;;;;30.50;19.88;;;;;;;1.37;100.00;102198.50;5068872;28;20063;-67
2023/04/05 07:09:56;;;;;;;29.92;19.63;;;;;;;1.48;100.00;102190.47;5069565;28;20029;-67
2023/04/05 07:12:21;;;;;;;30.15;19.88;;;;;;;1.57;100.00;102191.03;5070649;28;20070;-69
2023/04/05 07:14:46;;;;;;;29.35;18.70;;;;;;;1.68;100.00;102197.81;5071790;28;20028;-69
2023/04/05 07:17:12;;;;;;;29.40;19.27;;;;;;;1.75;100.00;102199.13;5067737;28;20029;-70
2023/04/05 07:19:37;;;;;;;29.08;18.70;;;;;;;1.85;100.00;102192.72;5069207;28;20033;-70
2023/04/05 07:22:02;;;;;;;28.30;18.55;;;;;;;1.98;100.00;102191.78;5066504;28;20583;-70
2023/04/05 07:24:28;;;;;;;29.50;18.08;;;;;;;2.11;100.00;102183.00;5067135;28;20043;-70
2023/04/05 07:26:53;;;;;;;27.85;17.92;;;;;;;2.20;100.00;102189.66;5067045;28;20028;-70
2023/04/05 07:29:19;;;;;;;29.08;18.05;;;;;;;2.36;100.00;102190.56;5069756;28;20119;-72
2023/04/05 07:31:44;;;;;;;28.63;17.95;;;;;;;2.48;100.00;102187.81;5065483;28;20040;-70
2023/04/05 07:34:10;;;;;;;27.90;17.10;;;;;;;2.58;100.00;102188.41;5071134;28;20363;-73
2023/04/05 07:36:35;;;;;;;27.55;16.90;;;;;;;2.69;100.00;102183.81;5076875;28;20119;-72
2023/04/05 07:39:00;;;;;;;27.40;17.45;;;;;;;2.86;100.00;102184.78;5073125;28;20387;-72
2023/04/05 07:41:31;;;;;;;28.65;16.85;;;;;;;3.01;100.00;102186.47;5075040;28;20040;-72
2023/04/05 07:43:59;;;;;;;29.13;17.13;;;;;;;3.12;100.00;102188.00;5068208;28;20028;-71
2023/04/05 07:46:26;;;;;;;27.80;16.92;;;;;;;3.30;100.00;102181.16;5070998;28;20036;-70
2023/04/05 07:48:51;;;;;;;26.67;16.33;;;;;;;3.44;100.00;102184.53;5075201;28;20032;-70
2023/04/05 07:51:16;;;;;;;29.75;16.27;;;;;;;3.78;100.00;102183.72;5075308;28;20020;-70
2023/04/05 07:53:42;;;;;;;25.75;15.88;;;;;;;4.14;100.00;102186.50;5074167;28;20037;-72
2023/04/05 07:56:12;;;;;;;26.35;15.13;;;;;;;4.43;100.00;102184.47;5073966;28;20405;-70
2023/04/05 07:58:40;;;;;;;26.45;15.43;;;;;;;4.64;100.00;102186.38;5074000;28;20432;-72
2023/04/05 08:01:07;;;;;;;25.77;14.65;;;;;;;4.88;100.00;102187.59;5075330;28;20035;-71
2023/04/05 08:03:34;;;;;;;24.88;13.75;;;;;;;5.09;100.00;102184.22;5075407;28;20056;-70
2023/04/05 08:06:16;;;;;;;24.65;14.18;;;;;;;5.44;100.00;102186.72;5071050;28;20245;-73
2023/04/05 08:08:42;;;;;;;24.60;13.88;;;;;;;5.64;100.00;102174.53;5072538;28;20032;-72
2023/04/05 08:11:08;;;;;;;23.88;13.27;;;;;;;5.86;100.00;102184.28;5075126;28;20035;-72
2023/04/05 08:13:33;;;;;;;24.45;12.73;;;;;;;6.01;97.38;102177.09;5074963;28;20032;-72
2023/04/05 08:16:00;;;;;;;25.10;12.45;;;;;;;6.21;96.61;102183.22;5075186;28;20040;-71
2023/04/05 08:18:26;;;;;;;23.17;12.05;;;;;;;6.29;89.18;102186.19;5075054;28;20456;-71
2023/04/05 08:20:53;;;;;;;23.65;11.88;;;;;;;6.34;77.93;102187.28;5074744;28;20039;-71
2023/04/05 08:23:19;;;;;;;22.63;11.27;;;;;;;6.71;74.44;102185.31;5074716;28;20052;-72
2023/04/05 08:25:45;;;;;;;24.13;11.90;;;;;;;7.02;69.12;102186.56;5074881;28;20063;-74
2023/04/05 08:28:10;;;;;;;22.95;11.77;;;;;;;7.30;70.40;102186.84;5074634;28;20040;-73
2023/04/05 08:30:35;;;;;;;23.00;11.00;;;;;;;7.58;61.86;102184.38;5074562;28;20059;-71
2023/04/05 08:33:01;;;;;;;23.60;11.10;;;;;;;7.63;61.05;102188.97;5074791;28;20115;-72
2023/04/05 08:35:26;;;;;;;22.83;10.48;;;;;;;7.83;58.38;102186.19;5073129;28;20392;-73
2023/04/05 08:37:52;;;;;;;25.05;11.02;;;;;;;7.94;56.51;102176.06;5074253;28;20033;-71
2023/04/05 08:40:17;;;;;;;23.20;10.40;;;;;;;7.99;56.19;102183.28;5074666;28;20028;-71
2023/04/05 08:42:56;;;;;;;22.80;10.38;;;;;;;8.27;56.88;102180.72;5074359;28;20483;-72
2023/04/05 08:45:24;;;;;;;23.83;11.00;;;;;;;8.62;56.51;102182.00;5073934;28;20029;-73
2023/04/05 08:47:52;;;;;;;23.92;11.10;;;;;;;9.20;53.41;102177.72;5074497;28;20063;-72
2023/04/05 08:50:17;;;;;;;22.90;10.98;;;;;;;9.74;55.05;102183.69;5074102;28;20031;-73
2023/04/05 08:52:48;;;;;;;22.83;11.18;;;;;;;10.19;53.32;102175.25;5074139;28;20032;-73
2023/04/05 08:55:14;;;;;;;22.60;10.90;;;;;;;10.64;51.46;102184.41;5074215;28;20085;-70
2023/04/05 08:57:43;;;;;;;23.10;11.07;;;;;;;11.15;49.83;102178.59;5074373;28;20467;-71
2023/04/05 09:00:09;;;;;;;23.27;11.20;;;;;;;11.47;49.48;102173.09;5072958;28;20040;-70
2023/04/05 09:02:35;;;;;;;23.42;12.00;;;;;;;11.77;47.84;102171.97;5074001;28;20052;-70
2023/04/05 09:05:02;;;;;;;22.67;10.90;;;;;;;12.13;47.57;102165.66;5062480;28;20114;-76
2023/04/05 09:07:30;;;;;;;23.33;10.50;;;;;;;12.38;43.17;102174.06;5062204;28;20096;-71
2023/04/05 09:09:58;;;;;;;22.45;10.88;;;;;;;12.93;45.14;102176.78;5062303;28;20024;-72
2023/04/05 09:12:24;;;;;;;23.55;11.07;;;;;;;13.28;42.41;102164.88;5063157;28;20025;-71
2023/04/05 09:14:50;;;;;;;22.13;11.32;;;;;;;13.71;42.92;102160.16;5060912;28;20017;-71
2023/04/05 09:17:20;;;;;;;22.88;11.25;;;;;;;13.98;41.32;102169.31;5062062;28;20032;-76
2023/04/05 09:19:48;;;;;;;21.48;10.23;;;;;;;14.15;39.13;102154.44;5061949;28;20025;-70
2023/04/05 09:22:17;;;;;;;22.58;10.88;;;;;;;14.30;38.11;102156.38;5061928;28;20021;-78
2023/04/05 09:24:44;;;;;;;23.50;11.38;;;;;;;14.37;38.88;102152.91;5062610;28;20021;-77
2023/04/05 09:27:19;;;;;;;20.95;9.38;;;;;;;14.63;38.24;102155.84;5062706;28;20027;-74
2023/04/05 09:29:46;;;;;;;20.95;9.07;;;;;;;14.66;35.60;102159.38;5061592;28;20017;-73
2023/04/05 09:32:13;;;;;;;22.33;9.25;;;;;;;14.84;36.36;102148.91;5061837;28;20090;-73
2023/04/05 09:34:39;;;;;;;20.92;7.93;;;;;;;14.64;33.62;102149.63;5060831;28;20040;-77
2023/04/05 09:37:15;;;;;;;19.98;8.13;;;;;;;13.89;36.97;102156.81;5061448;28;20035;-77
2023/04/05 09:39:42;;;;;;;21.77;8.82;;;;;;;13.12;36.08;102151.38;5061927;28;20036;-76
2023/04/05 09:42:14;;;;;;;20.85;9.15;;;;;;;12.72;38.11;102150.75;5061928;28;20013;-74
2023/04/05 09:45:04;;;;;;;20.67;8.80;;;;;;;12.72;39.04;102145.47;5070604;28;20086;-70
2023/04/05 09:47:33;;;;;;;21.73;9.20;;;;;;;12.94;36.48;102148.44;5069170;28;20511;-79
2023/04/05 09:50:00;;;;;;;21.85;9.40;;;;;;;13.85;34.57;102139.97;5073134;28;20107;-70
2023/04/05 09:52:27;;;;;;;20.95;9.68;;;;;;;14.96;34.01;102138.31;5072969;28;20029;-70
2023/04/05 09:54:55;;;;;;;21.17;9.75;;;;;;;15.90;32.02;102151.25;5072964;28;20101;-74
2023/04/05 09:57:26;;;;;;;21.15;9.68;;;;;;;16.67;31.90;102145.09;5072709;28;20463;-74
2023/04/05 09:59:52;;;;;;;21.38;9.63;;;;;;;17.32;31.33;102143.22;5072841;28;20369;-72
2023/04/05 10:02:19;;;;;;;21.50;9.63;;;;;;;17.84;29.16;102138.53;5072825;28;20024;-76
2023/04/05 10:04:47;;;;;;;21.17;9.30;;;;;;;17.83;29.22;102129.66;5073021;28;20058;-74
2023/04/05 10:07:13;;;;;;;21.08;9.57;;;;;;;17.46;29.55;102131.59;5072827;28;20029;-72
2023/04/05 10:09:40;;;;;;;22.02;9.30;;;;;;;17.39;28.98;102130.75;5072682;28;20169;-75
2023/04/05 10:12:10;;;;;;;21.55;9.55;;;;;;;17.88;27.75;102125.19;5073005;28;20082;-73
2023/04/05 10:14:36;;;;;;;20.90;9.10;;;;;;;18.15;27.53;102128.59;5072748;28;20123;-76
2023/04/05 10:17:10;;;;;;;21.90;10.13;;;;;;;18.74;28.66;102120.97;5072740;28;20107;-74
2023/04/05 10:19:48;;;;;;;21.58;9.35;;;;;;;19.38;25.93;102123.00;5069285;28;20059;-73
2023/04/05 10:22:17;;;;;;;20.27;8.38;;;;;;;19.59;25.00;102119.16;5072901;28;20111;-76
2023/04/05 10:24:53;;;;;;;20.83;9.02;;;;;;;20.05;26.67;102123.03;5071456;28;20541;-72
2023/04/05 10:27:36;;;;;;;21.83;9.35;;;;;;;20.97;25.88;102120.59;5072503;28;20104;-73
2023/04/05 10:30:08;;;;;;;20.77;9.15;;;;;;;20.30;25.29;102112.78;5068688;28;20028;-72
2023/04/05 10:32:40;;;;;;;;;;;;;;;20.45;26.38;102111.66;5069353;28;20136;-74
2023/04/05 10:35:15;;;;;;;20.30;9.30;;;;;;;19.11;26.63;102104.53;5069157;28;20046;-72
2023/04/05 10:37:51;;;;;;;20.25;8.57;;;;;;;20.09;26.20;102109.53;5072691;28;20123;-72
2023/04/05 10:40:20;;;;;;;20.40;8.60;;;;;;;20.89;23.42;102108.19;5072700;28;20032;-75
2023/04/05 10:42:47;;;;;;;20.00;8.40;;;;;;;21.24;23.12;102109.28;5072371;28;20048;-71
2023/04/05 10:45:16;;;;;;;20.65;8.80;;;;;;;21.86;24.13;102101.75;5072401;28;20081;-75
2023/04/05 10:48:08;;;;;;;21.52;9.35;;;;;;;21.68;22.89;102108.41;5072536;28;20027;-72
2023/04/05 10:50:35;;;;;;;21.48;9.23;;;;;;;21.79;22.84;102105.50;5069020;28;20477;-75
2023/04/05 10:53:01;;;;;;;22.45;9.68;;;;;;;21.94;21.81;102103.34;5068250;28;20115;-71
2023/04/05 10:55:28;;;;;;;20.30;9.10;;;;;;;21.80;22.10;102097.41;5072551;28;20431;-74
2023/04/05 10:57:54;;;;;;;20.23;8.82;;;;;;;21.82;22.23;102095.53;5071168;28;20475;-71
2023/04/05 11:00:22;;;;;;;19.90;8.70;;;;;;;21.91;21.34;102100.69;5072175;28;20040;-71
2023/04/05 11:02:52;;;;;;;20.10;9.02;;;;;;;22.27;20.56;102086.41;5072151;28;20033;-75
2023/04/05 11:05:32;;;;;;;20.65;9.30;;;;;;;21.80;21.95;102088.41;5072897;28;20052;-75
2023/04/05 11:08:02;;;;;;;20.33;8.90;;;;;;;21.62;22.30;102078.97;5072210;28;20428;-71
2023/04/05 11:10:28;;;;;;;20.73;8.43;;;;;;;23.19;20.57;102076.81;5075241;28;20480;-71
2023/04/05 11:12:54;;;;;;;20.75;8.70;;;;;;;24.02;18.80;102080.53;5076021;28;20074;-71